Time;durP1;ratioP1;P1;durP2;ratioP2;P2;SDS_P1;SDS_P2;PMS_P1;PMS_P2;Temp;Humidity;BMP_temperature;BMP_pressure;BME280_temperature;BME280_humidity;BME280_pressure;Samples;Min_cycle;Max_cycle;Signal;HPM_P1;HPM_P2
2022/10/13 00:01:36;;;;;;;21.77;12.23;;;;;;;;;;4982702;28;20402;-62
2022/10/13 00:04:01;;;;;;;23.88;13.18;;;;;;;;;;4990851;28;20045;-63
2022/10/13 00:06:27;;;;;;;24.50;12.05;;;;;;;;;;4995409;28;20031;-62
2022/10/13 00:08:53;;;;;;;22.05;12.15;;;;;;;;;;4993094;28;20037;-62
2022/10/13 00:11:22;;;;;;;26.08;13.73;;;;;;;;;;4981318;28;20038;-62
2022/10/13 00:13:49;;;;;;;23.25;12.57;;;;;;;;;;4972767;28;20031;-62
2022/10/13 00:16:16;;;;;;;22.60;12.23;;;;;;;;;;4986677;28;20037;-62
2022/10/13 00:18:42;;;;;;;23.63;12.23;;;;;;;;;;4995660;28;20495;-61
2022/10/13 00:21:10;;;;;;;24.73;12.80;;;;;;;;;;4984309;28;20118;-62
2022/10/13 00:23:36;;;;;;;30.60;12.35;;;;;;;;;;4996184;28;20168;-62
2022/10/13 00:26:04;;;;;;;22.30;12.38;;;;;;;;;;5000143;28;20474;-62
2022/10/13 00:28:30;;;;;;;20.48;11.70;;;;;;;;;;4997653;28;20045;-63
2022/10/13 00:30:55;;;;;;;20.48;10.88;;;;;;;;;;4976506;28;20039;-62
2022/10/13 00:33:21;;;;;;;25.90;13.30;;;;;;;;;;4990064;28;20963;-62
2022/10/13 00:35:47;;;;;;;25.15;12.95;;;;;;;;;;4990981;28;20049;-62
2022/10/13 00:38:15;;;;;;;21.13;12.10;;;;;;;;;;4984268;28;20034;-62
2022/10/13 00:40:52;;;;;;;21.30;11.90;;;;;;;;;;4980671;28;20081;-62
2022/10/13 00:43:18;;;;;;;24.65;12.07;;;;;;;;;;4984491;28;20045;-62
2022/10/13 00:45:44;;;;;;;19.95;11.75;;;;;;;;;;4972803;28;20037;-62
2022/10/13 00:48:10;;;;;;;22.30;11.75;;;;;;;;;;4976504;28;20038;-62
2022/10/13 00:50:41;;;;;;;21.35;11.75;;;;;;;;;;4980505;28;20110;-62
2022/10/13 00:53:08;;;;;;;22.77;11.98;;;;;;;;;;4987924;28;20058;-63
2022/10/13 00:55:35;;;;;;;24.90;12.07;;;;;;;;;;5012463;28;20101;-62
2022/10/13 00:58:04;;;;;;;22.98;12.07;;;;;;;;;;4973034;28;20061;-63
2022/10/13 01:00:30;;;;;;;22.58;12.40;;;;;;;;;;4986562;28;20122;-63
2022/10/13 01:02:55;;;;;;;23.13;11.82;;;;;;;;;;4983901;28;20121;-62
2022/10/13 01:05:23;;;;;;;28.88;12.80;;;;;;;;;;5008463;28;20464;-63
2022/10/13 01:07:49;;;;;;;23.80;12.85;;;;;;;;;;4992175;28;20038;-63
2022/10/13 01:10:26;;;;;;;24.58;12.60;;;;;;;;;;4987754;28;20034;-61
2022/10/13 01:13:04;;;;;;;20.80;12.02;;;;;;;;;;4986349;28;20035;-61
2022/10/13 01:15:39;;;;;;;25.42;11.90;;;;;;;;;;4975920;28;20226;-62
2022/10/13 01:18:10;;;;;;;20.42;12.85;;;;;;;;;;4993479;28;20560;-63
2022/10/13 01:20:57;;;;;;;21.55;11.80;;;;;;;;;;4988433;28;20391;-63
2022/10/13 01:23:34;;;;;;;23.60;13.48;;;;;;;;;;5002435;28;20038;-63
2022/10/13 01:26:21;;;;;;;22.27;11.40;;;;;;;;;;5002790;28;20034;-64
2022/10/13 01:28:58;;;;;;;28.35;13.00;;;;;;;;;;5007693;28;20065;-62
2022/10/13 01:31:33;;;;;;;19.77;11.93;;;;;;;;;;4988490;28;20097;-63
2022/10/13 01:34:12;;;;;;;19.45;11.00;;;;;;;;;;4994894;28;20034;-62
2022/10/13 01:36:52;;;;;;;20.08;11.65;;;;;;;;;;4998635;28;20037;-62
2022/10/13 01:39:23;;;;;;;25.33;12.20;;;;;;;;;;4995070;28;20122;-63
2022/10/13 01:41:50;;;;;;;;;;;;;;;;;;4977468;28;20105;-62
2022/10/13 01:44:28;;;;;;;19.05;10.55;;;;;;;;;;4975678;28;19918;-62
2022/10/13 01:46:54;;;;;;;22.27;11.18;;;;;;;;;;4987372;28;20037;-62
2022/10/13 01:49:25;;;;;;;22.35;11.70;;;;;;;;;;4998458;28;20096;-62
2022/10/13 01:51:52;;;;;;;21.55;11.52;;;;;;;;;;4975752;28;20038;-62
2022/10/13 01:54:17;;;;;;;25.85;12.30;;;;;;;;;;4974704;28;20054;-64
2022/10/13 01:56:51;;;;;;;21.02;11.68;;;;;;;;;;4980967;28;20472;-62
2022/10/13 01:59:17;;;;;;;25.08;11.80;;;;;;;;;;4987628;28;20037;-63
2022/10/13 02:01:45;;;;;;;22.50;11.23;;;;;;;;;;4979632;28;20373;-62
2022/10/13 02:04:47;;;;;;;22.73;11.50;;;;;;;;;;4979032;28;20033;-63
2022/10/13 02:07:23;;;;;;;23.60;11.93;;;;;;;;;;4985817;28;20037;-63
2022/10/13 02:10:33;;;;;;;21.98;11.25;;;;;;;;;;4992654;28;20085;-63
2022/10/13 02:13:00;;;;;;;21.07;12.00;;;;;;;;;;4989579;28;20030;-62
2022/10/13 02:15:38;;;;;;;23.13;11.38;;;;;;;;;;4986812;28;20022;-63
2022/10/13 02:18:03;;;;;;;21.88;10.98;;;;;;;;;;5003997;28;20073;-63
2022/10/13 02:20:30;;;;;;;20.38;11.27;;;;;;;;;;4986493;28;20055;-62
2022/10/13 02:23:07;;;;;;;23.23;11.60;;;;;;;;;;4990454;28;20046;-63
2022/10/13 02:25:33;;;;;;;24.65;10.70;;;;;;;;;;4992477;28;20471;-62
2022/10/13 02:28:00;;;;;;;16.98;10.40;;;;;;;;;;5008901;28;20096;-62
2022/10/13 02:30:29;;;;;;;19.77;10.73;;;;;;;;;;4980666;28;20439;-63
2022/10/13 02:32:54;;;;;;;20.27;10.98;;;;;;;;;;4992281;28;20121;-63
2022/10/13 02:35:20;;;;;;;18.80;10.38;;;;;;;;;;4987181;28;20127;-62
2022/10/13 02:37:45;;;;;;;19.80;10.48;;;;;;;;;;4974408;28;20384;-62
2022/10/13 02:40:12;;;;;;;19.15;10.00;;;;;;;;;;4974277;28;20043;-63
2022/10/13 02:42:37;;;;;;;17.88;9.88;;;;;;;;;;4998024;28;20049;-62
2022/10/13 02:45:03;;;;;;;17.70;9.98;;;;;;;;;;4998552;28;20458;-63
2022/10/13 02:47:29;;;;;;;22.38;9.85;;;;;;;;;;5000691;28;20033;-62
2022/10/13 02:49:54;;;;;;;17.52;9.90;;;;;;;;;;5007690;28;20550;-63
2022/10/13 02:52:20;;;;;;;19.13;9.30;;;;;;;;;;4987109;28;20061;-62
2022/10/13 02:54:45;;;;;;;17.90;9.85;;;;;;;;;;4992722;28;20097;-62
2022/10/13 02:57:10;;;;;;;18.98;10.57;;;;;;;;;;4995582;28;20475;-63
2022/10/13 02:59:36;;;;;;;17.85;9.43;;;;;;;;;;4995467;28;20118;-62
2022/10/13 03:02:01;;;;;;;19.90;9.75;;;;;;;;;;4978309;28;20035;-62
2022/10/13 03:04:27;;;;;;;17.17;9.55;;;;;;;;;;4981801;28;20033;-62
2022/10/13 03:06:52;;;;;;;17.60;10.70;;;;;;;;;;5003055;28;20486;-62
2022/10/13 03:09:18;;;;;;;17.35;9.35;;;;;;;;;;4990485;28;20032;-63
2022/10/13 03:11:43;;;;;;;19.40;9.60;;;;;;;;;;4993256;28;20065;-63
2022/10/13 03:14:09;;;;;;;16.65;9.63;;;;;;;;;;4990070;28;20031;-63
2022/10/13 03:16:34;;;;;;;18.73;9.90;;;;;;;;;;4980259;28;20081;-63
2022/10/13 03:18:59;;;;;;;19.77;9.88;;;;;;;;;;4989337;28;20505;-62
2022/10/13 03:21:25;;;;;;;16.90;8.55;;;;;;;;;;4997004;28;20478;-63
2022/10/13 03:23:50;;;;;;;19.50;9.93;;;;;;;;;;4987770;28;20114;-62
2022/10/13 03:26:16;;;;;;;16.48;9.15;;;;;;;;;;4989178;28;20093;-63
2022/10/13 03:28:41;;;;;;;17.23;9.30;;;;;;;;;;4976593;28;20038;-62
2022/10/13 03:31:10;;;;;;;17.38;9.43;;;;;;;;;;4981424;28;20038;-62
2022/10/13 03:33:35;;;;;;;18.88;9.02;;;;;;;;;;4987779;28;20234;-62
2022/10/13 03:36:03;;;;;;;17.10;9.13;;;;;;;;;;4991732;28;20458;-62
2022/10/13 03:38:30;;;;;;;19.80;9.88;;;;;;;;;;4982654;28;20068;-63
2022/10/13 03:40:55;;;;;;;17.90;9.43;;;;;;;;;;4992070;28;20034;-64
2022/10/13 03:43:22;;;;;;;19.92;10.00;;;;;;;;;;4990927;28;20042;-63
2022/10/13 03:46:01;;;;;;;17.95;8.85;;;;;;;;;;4977586;28;20045;-63
2022/10/13 03:48:27;;;;;;;18.20;9.20;;;;;;;;;;4990557;28;20030;-62
2022/10/13 03:50:53;;;;;;;15.07;9.32;;;;;;;;;;4988571;28;20375;-62
2022/10/13 03:53:19;;;;;;;17.35;9.00;;;;;;;;;;4971798;28;20031;-62
2022/10/13 03:55:49;;;;;;;16.15;9.13;;;;;;;;;;4988015;28;20030;-62
2022/10/13 03:58:15;;;;;;;16.02;9.82;;;;;;;;;;4972579;28;20034;-62
2022/10/13 04:00:40;;;;;;;21.80;10.57;;;;;;;;;;4987562;28;20406;-62
2022/10/13 04:03:06;;;;;;;18.92;9.60;;;;;;;;;;4993774;28;20112;-62
2022/10/13 04:05:33;;;;;;;22.50;9.63;;;;;;;;;;4996183;28;20026;-62
2022/10/13 04:07:58;;;;;;;18.25;9.82;;;;;;;;;;4987980;28;20030;-63
2022/10/13 04:10:23;;;;;;;16.90;9.80;;;;;;;;;;5007813;28;20367;-63
2022/10/13 04:12:49;;;;;;;17.23;9.80;;;;;;;;;;4985480;28;20033;-62
2022/10/13 04:15:15;;;;;;;17.15;9.73;;;;;;;;;;5025048;28;20144;-63
2022/10/13 04:17:40;;;;;;;17.98;10.07;;;;;;;;;;4998276;28;20105;-63
2022/10/13 04:20:06;;;;;;;19.58;10.07;;;;;;;;;;4973368;28;20038;-62
2022/10/13 04:22:32;;;;;;;17.35;10.10;;;;;;;;;;4977768;28;20490;-62
2022/10/13 04:24:57;;;;;;;17.05;10.32;;;;;;;;;;5012564;28;20030;-62
2022/10/13 04:27:22;;;;;;;21.48;10.15;;;;;;;;;;4988681;28;20078;-63
2022/10/13 04:29:48;;;;;;;19.83;10.82;;;;;;;;;;4974700;28;20029;-62
2022/10/13 04:32:13;;;;;;;20.52;9.85;;;;;;;;;;4975849;28;20034;-61
2022/10/13 04:34:39;;;;;;;20.45;10.82;;;;;;;;;;4977837;28;20806;-62
2022/10/13 04:37:04;;;;;;;21.88;11.70;;;;;;;;;;4974133;28;20034;-62
2022/10/13 04:39:30;;;;;;;19.13;10.50;;;;;;;;;;5001469;28;20034;-62
2022/10/13 04:41:55;;;;;;;20.30;9.65;;;;;;;;;;4984639;28;20030;-62
2022/10/13 04:44:20;;;;;;;18.55;9.30;;;;;;;;;;4988454;28;20042;-62
2022/10/13 04:46:46;;;;;;;19.80;9.75;;;;;;;;;;4989019;28;20420;-62
2022/10/13 04:49:11;;;;;;;16.45;10.30;;;;;;;;;;4974959;28;20037;-63
2022/10/13 04:51:37;;;;;;;21.63;9.82;;;;;;;;;;4994696;28;20144;-63
2022/10/13 04:54:04;;;;;;;17.77;10.05;;;;;;;;;;5011509;28;20120;-62
2022/10/13 04:56:30;;;;;;;17.70;10.00;;;;;;;;;;5010447;28;20040;-62
2022/10/13 04:58:56;;;;;;;22.60;10.25;;;;;;;;;;5006586;28;20034;-62
2022/10/13 05:01:23;;;;;;;17.15;10.05;;;;;;;;;;5006227;28;20050;-64
2022/10/13 05:03:53;;;;;;;19.40;9.98;;;;;;;;;;5006353;28;20058;-63
2022/10/13 05:06:22;;;;;;;16.17;9.63;;;;;;;;;;5011801;28;20041;-61
2022/10/13 05:08:48;;;;;;;19.58;10.35;;;;;;;;;;5010396;28;20030;-62
2022/10/13 05:11:14;;;;;;;17.15;9.65;;;;;;;;;;5010793;28;20036;-62
2022/10/13 05:13:40;;;;;;;17.02;9.85;;;;;;;;;;5006688;28;20442;-62
2022/10/13 05:16:10;;;;;;;17.90;10.30;;;;;;;;;;5008769;28;20555;-62
2022/10/13 05:18:36;;;;;;;18.50;9.70;;;;;;;;;;4991152;28;20035;-64
2022/10/13 05:21:09;;;;;;;20.60;10.80;;;;;;;;;;4995749;28;20385;-68
2022/10/13 05:23:34;;;;;;;16.63;9.68;;;;;;;;;;4990559;28;20435;-69
2022/10/13 05:26:03;;;;;;;19.08;10.00;;;;;;;;;;4990792;28;20072;-71
2022/10/13 05:28:28;;;;;;;16.85;9.85;;;;;;;;;;4998410;28;20061;-71
2022/10/13 05:30:53;;;;;;;17.65;9.68;;;;;;;;;;5011713;28;20034;-72
2022/10/13 05:33:19;;;;;;;20.98;10.40;;;;;;;;;;5009057;28;20108;-70
2022/10/13 05:35:44;;;;;;;20.00;9.80;;;;;;;;;;5009925;28;20033;-72
2022/10/13 05:38:09;;;;;;;16.67;9.57;;;;;;;;;;4998823;28;20027;-70
2022/10/13 05:40:35;;;;;;;19.33;10.27;;;;;;;;;;4981736;28;20026;-70
2022/10/13 05:43:00;;;;;;;21.25;10.07;;;;;;;;;;4997664;28;20053;-70
2022/10/13 05:45:28;;;;;;;18.95;10.20;;;;;;;;;;4993794;28;20102;-75
2022/10/13 05:47:53;;;;;;;20.40;10.10;;;;;;;;;;5010904;28;20116;-70
2022/10/13 05:50:19;;;;;;;23.98;10.52;;;;;;;;;;5010032;28;20117;-71
2022/10/13 05:52:45;;;;;;;21.50;10.38;;;;;;;;;;4999042;28;20026;-74
2022/10/13 05:55:14;;;;;;;19.55;9.77;;;;;;;;;;5006278;28;20124;-72
2022/10/13 05:57:43;;;;;;;19.38;10.85;;;;;;;;;;5011934;28;20474;-70
2022/10/13 06:00:15;;;;;;;23.15;10.25;;;;;;;;;;5013757;28;20034;-71
2022/10/13 06:02:47;;;;;;;23.83;10.60;;;;;;;;;;5014170;28;20033;-72
2022/10/13 06:05:16;;;;;;;22.17;10.75;;;;;;;;;;5012232;28;20038;-72
2022/10/13 06:07:43;;;;;;;27.25;10.52;;;;;;;;;;5000032;28;20030;-72
2022/10/13 06:10:09;;;;;;;22.92;10.40;;;;;;;;;;5014533;28;20038;-71
2022/10/13 06:12:35;;;;;;;16.30;10.10;;;;;;;;;;5012101;28;20061;-70
2022/10/13 06:15:00;;;;;;;24.27;10.73;;;;;;;;;;5013210;28;20074;-68
2022/10/13 06:17:26;;;;;;;20.33;10.57;;;;;;;;;;5012550;28;20034;-70
2022/10/13 06:19:51;;;;;;;16.13;10.40;;;;;;;;;;5014184;28;20057;-72
2022/10/13 06:22:16;;;;;;;29.08;10.98;;;;;;;;;;4999110;28;20445;-66
2022/10/13 06:24:42;;;;;;;18.38;10.60;;;;;;;;;;5007238;28;20056;-71
2022/10/13 06:27:08;;;;;;;19.67;10.13;;;;;;;;;;5012109;28;20026;-73
2022/10/13 06:29:34;;;;;;;20.55;10.07;;;;;;;;;;5011545;28;20060;-69
2022/10/13 06:32:00;;;;;;;23.35;10.45;;;;;;;;;;5010247;28;20029;-71
2022/10/13 06:34:25;;;;;;;21.80;10.85;;;;;;;;;;5013412;28;20121;-65
2022/10/13 06:36:51;;;;;;;19.00;10.60;;;;;;;;;;5007094;28;20050;-68
2022/10/13 06:39:16;;;;;;;18.17;9.98;;;;;;;;;;5003206;28;20038;-69
2022/10/13 06:41:42;;;;;;;19.13;10.13;;;;;;;;;;4994493;28;20027;-73
2022/10/13 06:44:07;;;;;;;20.83;9.90;;;;;;;;;;4994487;28;20026;-69
2022/10/13 06:46:32;;;;;;;18.55;9.63;;;;;;;;;;5004147;28;20037;-71
2022/10/13 06:48:58;;;;;;;17.02;9.32;;;;;;;;;;4994686;28;20093;-70
2022/10/13 06:51:23;;;;;;;16.63;8.60;;;;;;;;;;5006739;28;20072;-68
2022/10/13 06:53:49;;;;;;;20.02;9.40;;;;;;;;;;5012972;28;20391;-70
2022/10/13 06:56:14;;;;;;;18.50;9.65;;;;;;;;;;4993873;28;20030;-68
2022/10/13 06:58:40;;;;;;;15.57;8.93;;;;;;;;;;4987919;28;20476;-72
2022/10/13 07:01:05;;;;;;;17.75;9.27;;;;;;;;;;4984924;28;20034;-68
2022/10/13 07:03:32;;;;;;;22.02;9.45;;;;;;;;;;4995905;28;20399;-70
2022/10/13 07:06:04;;;;;;;18.55;9.05;;;;;;;;;;5006524;28;20041;-70
2022/10/13 07:08:30;;;;;;;22.85;8.90;;;;;;;;;;4993005;28;20030;-72
2022/10/13 07:10:56;;;;;;;18.83;9.43;;;;;;;;;;4985834;28;20030;-70
2022/10/13 07:13:22;;;;;;;21.95;9.35;;;;;;;;;;4993536;28;20044;-67
2022/10/13 07:15:47;;;;;;;21.58;9.20;;;;;;;;;;4992980;28;20030;-68
2022/10/13 07:18:13;;;;;;;20.10;8.93;;;;;;;;;;4992586;28;20491;-69
2022/10/13 07:20:38;;;;;;;17.90;9.07;;;;;;;;;;4991892;28;20055;-71
2022/10/13 07:23:03;;;;;;;15.48;8.85;;;;;;;;;;4993784;28;20077;-70
2022/10/13 07:25:29;;;;;;;14.13;7.75;;;;;;;;;;5008955;28;20036;-69
2022/10/13 07:27:55;;;;;;;16.80;8.15;;;;;;;;;;5009576;28;20034;-69
2022/10/13 07:30:20;;;;;;;15.75;7.82;;;;;;;;;;4993609;28;20033;-69
2022/10/13 07:32:46;;;;;;;16.10;8.73;;;;;;;;;;4992884;28;20554;-69
2022/10/13 07:35:12;;;;;;;17.58;7.72;;;;;;;;;;4993499;28;20355;-70
2022/10/13 07:37:38;;;;;;;20.55;8.85;;;;;;;;;;4990991;28;20030;-70
2022/10/13 07:40:04;;;;;;;15.65;7.70;;;;;;;;;;4993622;28;20042;-69
2022/10/13 07:42:29;;;;;;;14.15;8.10;;;;;;;;;;4999426;28;20041;-69
2022/10/13 07:44:55;;;;;;;13.40;7.72;;;;;;;;;;5007557;28;20116;-67
2022/10/13 07:47:20;;;;;;;13.27;8.15;;;;;;;;;;5001494;28;20546;-68
2022/10/13 07:49:46;;;;;;;16.58;8.30;;;;;;;;;;4989448;28;20022;-69
2022/10/13 07:52:11;;;;;;;19.60;7.78;;;;;;;;;;4992142;28;20430;-69
2022/10/13 07:54:37;;;;;;;13.15;8.00;;;;;;;;;;5007492;28;20025;-72
2022/10/13 07:57:02;;;;;;;15.55;7.68;;;;;;;;;;5010410;28;20038;-71
2022/10/13 07:59:28;;;;;;;18.92;7.85;;;;;;;;;;5009776;28;20030;-69
2022/10/13 08:01:53;;;;;;;18.42;8.60;;;;;;;;;;5006307;28;20486;-70
2022/10/13 08:04:19;;;;;;;17.58;8.50;;;;;;;;;;5005947;28;20392;-68
2022/10/13 08:06:44;;;;;;;14.43;7.72;;;;;;;;;;5008521;28;20041;-69
2022/10/13 08:09:10;;;;;;;19.25;8.32;;;;;;;;;;5004160;28;20038;-67
2022/10/13 08:11:35;;;;;;;16.70;7.40;;;;;;;;;;5004314;28;20463;-68
2022/10/13 08:14:01;;;;;;;12.98;8.15;;;;;;;;;;4983654;28;20035;-65
2022/10/13 08:16:27;;;;;;;14.55;7.88;;;;;;;;;;4987379;28;20440;-66
2022/10/13 08:18:53;;;;;;;16.42;8.25;;;;;;;;;;4995368;28;20026;-68
2022/10/13 08:21:21;;;;;;;16.25;8.20;;;;;;;;;;4991821;28;20446;-70
2022/10/13 08:23:47;;;;;;;16.42;8.50;;;;;;;;;;4993752;28;20191;-69
2022/10/13 08:26:24;;;;;;;14.15;8.45;;;;;;;;;;5001071;28;20426;-70
2022/10/13 08:28:51;;;;;;;19.13;8.75;;;;;;;;;;5000401;28;20041;-68
2022/10/13 08:31:16;;;;;;;17.20;8.98;;;;;;;;;;5001694;28;20148;-71
2022/10/13 08:33:42;;;;;;;16.92;8.52;;;;;;;;;;5003405;28;20478;-68
2022/10/13 08:36:07;;;;;;;16.60;8.63;;;;;;;;;;5006557;28;20038;-70
2022/10/13 08:38:34;;;;;;;17.55;8.32;;;;;;;;;;4997952;28;20025;-65
2022/10/13 08:41:00;;;;;;;15.20;8.00;;;;;;;;;;5007480;28;20034;-69
2022/10/13 08:43:26;;;;;;;18.45;8.30;;;;;;;;;;4999909;28;20075;-69
2022/10/13 08:46:00;;;;;;;18.40;7.88;;;;;;;;;;5003466;28;20066;-68
2022/10/13 08:48:35;;;;;;;13.75;7.70;;;;;;;;;;5004132;28;20038;-71
2022/10/13 08:51:06;;;;;;;15.13;8.85;;;;;;;;;;5011728;28;20036;-68
2022/10/13 08:53:36;;;;;;;16.55;8.88;;;;;;;;;;5009853;28;20108;-66
2022/10/13 08:56:28;;;;;;;19.27;8.57;;;;;;;;;;5010285;28;20483;-71
2022/10/13 08:58:55;;;;;;;16.85;8.20;;;;;;;;;;5005401;28;20034;-70
2022/10/13 09:01:29;;;;;;;15.77;8.23;;;;;;;;;;5006265;28;20030;-71
2022/10/13 09:04:02;;;;;;;14.30;8.65;;;;;;;;;;4997133;28;20448;-70
2022/10/13 09:06:32;;;;;;;17.50;8.35;;;;;;;;;;4991559;28;20105;-71
2022/10/13 09:09:07;;;;;;;16.65;8.63;;;;;;;;;;5010311;28;20034;-72
2022/10/13 09:11:50;;;;;;;13.52;8.15;;;;;;;;;;5004953;28;20042;-68
2022/10/13 09:14:21;;;;;;;17.50;7.85;;;;;;;;;;4997806;28;20462;-68
2022/10/13 09:16:47;;;;;;;;;;;;;;;;;;4999396;28;20049;-68
2022/10/13 09:19:32;;;;;;;13.77;8.32;;;;;;;;;;5001879;28;20306;-72
2022/10/13 09:22:22;;;;;;;20.33;8.15;;;;;;;;;;5000571;28;20049;-65
2022/10/13 09:25:14;;;;;;;16.42;7.65;;;;;;;;;;5010408;28;20069;-69
2022/10/13 09:28:07;;;;;;;13.25;7.90;;;;;;;;;;5007326;28;20483;-69
2022/10/13 09:30:42;;;;;;;17.73;8.13;;;;;;;;;;5001860;28;20038;-67
2022/10/13 09:33:08;;;;;;;15.43;7.80;;;;;;;;;;4995130;28;20037;-72
2022/10/13 09:35:59;;;;;;;15.70;8.70;;;;;;;;;;4991677;28;20084;-70
2022/10/13 09:38:25;;;;;;;14.48;7.82;;;;;;;;;;5000706;28;20046;-70
2022/10/13 09:41:07;;;;;;;15.00;8.10;;;;;;;;;;4988028;28;20144;-68
2022/10/13 09:43:42;;;;;;;13.40;7.68;;;;;;;;;;4975975;28;20093;-66
2022/10/13 09:46:12;;;;;;;14.63;7.88;;;;;;;;;;4992661;28;20422;-65
2022/10/13 09:48:41;;;;;;;16.35;7.80;;;;;;;;;;5004562;28;20061;-65
2022/10/13 09:51:29;;;;;;;14.63;7.90;;;;;;;;;;5011287;28;20034;-65
2022/10/13 09:53:55;;;;;;;17.88;7.55;;;;;;;;;;4999056;28;20034;-68
2022/10/13 09:56:42;;;;;;;16.73;7.53;;;;;;;;;;5004324;28;20065;-70
2022/10/13 09:59:20;;;;;;;13.00;7.43;;;;;;;;;;5011255;28;20029;-65
2022/10/13 10:01:46;;;;;;;12.63;7.60;;;;;;;;;;5011784;28;20065;-64
2022/10/13 10:04:19;;;;;;;13.60;7.28;;;;;;;;;;5003935;28;20033;-65
2022/10/13 10:06:45;;;;;;;14.75;7.47;;;;;;;;;;4999951;28;20038;-69
2022/10/13 10:09:32;;;;;;;12.40;6.88;;;;;;;;;;4997408;28;20041;-65
2022/10/13 10:11:59;;;;;;;17.40;6.60;;;;;;;;;;5002365;28;20068;-65
2022/10/13 10:14:28;;;;;;;14.10;6.28;;;;;;;;;;4999639;28;20387;-65
2022/10/13 10:17:27;;;;;;;13.07;5.97;;;;;;;;;;5010792;28;20088;-65
2022/10/13 10:20:19;;;;;;;10.35;6.22;;;;;;;;;;5010902;28;20041;-70
2022/10/13 10:22:50;;;;;;;10.07;6.30;;;;;;;;;;4996488;28;20145;-68
2022/10/13 10:25:19;;;;;;;11.95;5.55;;;;;;;;;;4994832;28;20038;-68
2022/10/13 10:28:26;;;;;;;12.05;6.20;;;;;;;;;;4991815;28;20045;-68
2022/10/13 10:31:12;;;;;;;14.68;5.53;;;;;;;;;;4999820;28;20171;-65
2022/10/13 10:33:59;;;;;;;14.15;5.95;;;;;;;;;;5000049;28;20402;-63
2022/10/13 10:36:35;;;;;;;12.25;5.55;;;;;;;;;;4995874;28;20073;-65
2022/10/13 10:39:34;;;;;;;8.50;5.05;;;;;;;;;;5006975;28;20041;-65
2022/10/13 10:42:23;;;;;;;15.85;5.53;;;;;;;;;;4997199;28;20039;-64
2022/10/13 10:44:52;;;;;;;13.63;5.40;;;;;;;;;;4998556;28;20057;-65
2022/10/13 10:47:25;;;;;;;12.52;5.50;;;;;;;;;;5009107;28;20029;-69
2022/10/13 10:49:58;;;;;;;12.70;5.40;;;;;;;;;;5012827;28;20085;-70
2022/10/13 10:52:38;;;;;;;11.43;5.00;;;;;;;;;;4998626;28;20405;-68
2022/10/13 10:55:37;;;;;;;12.90;5.28;;;;;;;;;;5007340;28;20109;-68
2022/10/13 10:58:21;;;;;;;10.00;4.93;;;;;;;;;;5010831;28;20049;-67
2022/10/13 11:00:57;;;;;;;10.60;4.90;;;;;;;;;;5002752;28;20038;-66
2022/10/13 11:04:04;;;;;;;11.93;5.55;;;;;;;;;;4988555;28;20045;-69
2022/10/13 11:06:35;;;;;;;8.35;4.85;;;;;;;;;;4991202;28;20058;-70
2022/10/13 11:09:04;;;;;;;9.38;4.68;;;;;;;;;;4998718;28;20041;-67
2022/10/13 11:11:32;;;;;;;12.30;5.30;;;;;;;;;;5001142;28;20064;-67
2022/10/13 11:14:04;;;;;;;9.95;5.05;;;;;;;;;;5003954;28;20133;-67
2022/10/13 11:16:57;;;;;;;10.50;5.20;;;;;;;;;;5005632;28;20061;-69
2022/10/13 11:19:36;;;;;;;15.52;5.40;;;;;;;;;;4999392;28;20041;-66
2022/10/13 11:22:01;;;;;;;9.98;5.07;;;;;;;;;;5004403;28;20082;-67
2022/10/13 11:24:32;;;;;;;9.10;4.95;;;;;;;;;;5012675;28;20115;-67
2022/10/13 11:27:06;;;;;;;11.65;5.03;;;;;;;;;;5011898;28;20037;-68
2022/10/13 11:30:05;;;;;;;8.50;5.20;;;;;;;;;;5003016;28;20038;-69
2022/10/13 11:32:40;;;;;;;14.68;4.72;;;;;;;;;;5005199;28;20091;-67
2022/10/13 11:35:05;;;;;;;11.73;4.50;;;;;;;;;;5000841;28;20041;-67
2022/10/13 11:37:39;;;;;;;10.07;4.60;;;;;;;;;;5000951;28;20386;-71
2022/10/13 11:40:15;;;;;;;12.15;4.38;;;;;;;;;;5007653;28;20026;-68
2022/10/13 11:42:46;;;;;;;12.60;4.57;;;;;;;;;;5012087;28;20034;-70
2022/10/13 11:45:26;;;;;;;;;;;;;;;;;;5014803;28;20036;-68
2022/10/13 11:48:13;;;;;;;9.75;4.45;;;;;;;;;;5012076;28;20294;-70
2022/10/13 11:51:06;;;;;;;8.95;4.40;;;;;;;;;;5011847;28;20494;-67
2022/10/13 11:53:57;;;;;;;9.20;4.28;;;;;;;;;;4998196;28;20044;-71
2022/10/13 11:56:35;;;;;;;8.15;4.00;;;;;;;;;;5004173;28;20034;-68
2022/10/13 11:59:01;;;;;;;6.90;4.00;;;;;;;;;;5011955;28;20121;-73
2022/10/13 12:01:27;;;;;;;12.38;4.05;;;;;;;;;;5001552;28;20460;-70
2022/10/13 12:03:53;;;;;;;10.27;4.15;;;;;;;;;;4990253;28;20030;-72
2022/10/13 12:06:33;;;;;;;11.40;4.30;;;;;;;;;;4996779;28;20048;-71
2022/10/13 12:09:04;;;;;;;8.80;4.20;;;;;;;;;;4991719;28;20085;-71
2022/10/13 12:11:36;;;;;;;9.70;4.00;;;;;;;;;;4999317;28;20067;-70
2022/10/13 12:14:03;;;;;;;7.90;3.50;;;;;;;;;;5001998;28;20125;-69
2022/10/13 12:16:29;;;;;;;7.60;4.00;;;;;;;;;;5011321;28;20105;-70
2022/10/13 12:19:09;;;;;;;9.73;4.00;;;;;;;;;;5009888;28;20065;-69
2022/10/13 12:21:47;;;;;;;8.57;4.55;;;;;;;;;;5005121;28;20050;-67
2022/10/13 12:24:12;;;;;;;9.02;4.50;;;;;;;;;;4973356;28;20046;-69
2022/10/13 12:26:38;;;;;;;6.63;4.30;;;;;;;;;;4998129;28;20104;-69
2022/10/13 12:29:11;;;;;;;11.43;4.55;;;;;;;;;;5012190;28;20062;-70
2022/10/13 12:31:42;;;;;;;8.73;4.20;;;;;;;;;;5008730;28;20033;-68
2022/10/13 12:34:25;;;;;;;7.47;3.92;;;;;;;;;;5000044;28;20046;-71
2022/10/13 12:36:54;;;;;;;13.77;5.00;;;;;;;;;;5006810;28;20091;-70
2022/10/13 12:39:20;;;;;;;11.17;4.70;;;;;;;;;;5010670;28;20025;-70
2022/10/13 12:41:47;;;;;;;10.73;4.97;;;;;;;;;;5004655;28;20052;-70
2022/10/13 12:44:18;;;;;;;12.27;4.95;;;;;;;;;;4995155;28;20050;-70
2022/10/13 12:46:47;;;;;;;9.95;5.25;;;;;;;;;;5006745;28;20033;-69
2022/10/13 12:49:23;;;;;;;8.30;5.18;;;;;;;;;;4994566;28;20504;-69
2022/10/13 12:51:56;;;;;;;8.88;4.32;;;;;;;;;;5008132;28;20038;-70
2022/10/13 12:54:29;;;;;;;13.20;5.68;;;;;;;;;;5010691;28;20052;-71
2022/10/13 12:57:00;;;;;;;12.10;4.88;;;;;;;;;;4999393;28;20053;-69
2022/10/13 12:59:27;;;;;;;12.70;5.28;;;;;;;;;;5009452;28;20034;-71
2022/10/13 13:02:01;;;;;;;11.82;5.38;;;;;;;;;;5002426;28;20034;-69
2022/10/13 13:04:31;;;;;;;16.15;6.00;;;;;;;;;;4985469;28;20034;-69
2022/10/13 13:07:32;;;;;;;12.40;5.75;;;;;;;;;;5006428;28;20030;-67
2022/10/13 13:10:19;;;;;;;13.27;6.05;;;;;;;;;;5008244;28;20442;-69
2022/10/13 13:12:46;;;;;;;20.00;6.03;;;;;;;;;;4993771;28;20121;-68
2022/10/13 13:15:23;;;;;;;15.02;6.18;;;;;;;;;;4990460;28;20057;-69
2022/10/13 13:17:50;;;;;;;12.50;6.13;;;;;;;;;;5008013;28;20540;-69
2022/10/13 13:20:32;;;;;;;13.35;5.90;;;;;;;;;;4989175;28;20365;-65
2022/10/13 13:22:58;;;;;;;10.65;6.35;;;;;;;;;;5004682;28;20042;-63
2022/10/13 13:25:24;;;;;;;10.80;6.28;;;;;;;;;;5003750;28;20065;-70
2022/10/13 13:27:50;;;;;;;16.33;6.60;;;;;;;;;;4999150;28;20443;-63
2022/10/13 13:30:18;;;;;;;12.65;6.93;;;;;;;;;;5002710;28;20044;-67
2022/10/13 13:32:44;;;;;;;12.10;6.65;;;;;;;;;;5002201;28;20065;-71
2022/10/13 13:35:09;;;;;;;11.75;6.30;;;;;;;;;;4994147;28;20444;-69
2022/10/13 13:37:48;;;;;;;13.23;6.13;;;;;;;;;;4994438;28;20041;-70
2022/10/13 13:40:17;;;;;;;11.63;5.50;;;;;;;;;;5006983;28;20505;-72
2022/10/13 13:42:42;;;;;;;19.40;6.20;;;;;;;;;;4982696;28;20042;-70
2022/10/13 13:45:15;;;;;;;16.30;6.38;;;;;;;;;;4977263;28;20034;-71
2022/10/13 13:47:40;;;;;;;11.70;6.25;;;;;;;;;;5004804;28;20029;-71
2022/10/13 13:50:17;;;;;;;9.68;5.40;;;;;;;;;;5009711;28;20122;-72
2022/10/13 13:52:42;;;;;;;11.23;6.38;;;;;;;;;;5009020;28;20040;-72
2022/10/13 13:55:08;;;;;;;13.77;6.15;;;;;;;;;;5005685;28;20492;-71
2022/10/13 13:57:33;;;;;;;13.95;6.20;;;;;;;;;;4995226;28;20146;-69
2022/10/13 13:59:58;;;;;;;13.25;6.53;;;;;;;;;;4983244;28;20102;-69
2022/10/13 14:02:24;;;;;;;11.68;6.40;;;;;;;;;;4971636;28;20035;-69
2022/10/13 14:04:49;;;;;;;14.02;6.22;;;;;;;;;;4969578;28;20046;-67
2022/10/13 14:07:16;;;;;;;13.80;6.25;;;;;;;;;;4995573;28;20034;-70
2022/10/13 14:09:41;;;;;;;12.00;6.22;;;;;;;;;;5003852;28;20470;-69
2022/10/13 14:12:07;;;;;;;12.02;6.68;;;;;;;;;;5014042;28;20045;-69
2022/10/13 14:14:32;;;;;;;13.52;6.30;;;;;;;;;;5011996;28;20069;-69
2022/10/13 14:17:00;;;;;;;13.88;6.18;;;;;;;;;;5013808;28;20030;-72
2022/10/13 14:19:25;;;;;;;11.27;6.65;;;;;;;;;;5011770;28;20060;-72
2022/10/13 14:21:51;;;;;;;11.68;6.88;;;;;;;;;;4992394;28;20491;-70
2022/10/13 14:24:17;;;;;;;15.68;7.03;;;;;;;;;;4984497;28;20383;-69
2022/10/13 14:26:42;;;;;;;13.80;7.50;;;;;;;;;;5006653;28;20451;-71
2022/10/13 14:29:08;;;;;;;15.40;7.57;;;;;;;;;;4988013;28;20073;-66
2022/10/13 14:31:34;;;;;;;12.05;7.40;;;;;;;;;;4989560;28;20039;-66
2022/10/13 14:33:59;;;;;;;13.73;7.63;;;;;;;;;;4982129;28;20077;-70
2022/10/13 14:36:25;;;;;;;12.77;7.43;;;;;;;;;;4999178;28;20089;-72
2022/10/13 14:38:50;;;;;;;15.60;8.30;;;;;;;;;;4989570;28;20082;-72
2022/10/13 14:41:17;;;;;;;14.57;7.80;;;;;;;;;;4991713;28;20031;-68
2022/10/13 14:43:42;;;;;;;12.90;7.18;;;;;;;;;;4992780;28;20037;-69
2022/10/13 14:46:09;;;;;;;17.08;8.27;;;;;;;;;;5007591;28;20467;-72